Time;durP1;ratioP1;P1;durP2;ratioP2;P2;SDS_P1;SDS_P2;PMS_P1;PMS_P2;Temp;Humidity;BMP_temperature;BMP_pressure;BME280_temperature;BME280_humidity;BME280_pressure;Samples;Min_cycle;Max_cycle;Signal;HPM_P1;HPM_P2
2021/01/11 00:01:45;;;;;;;116.57;45.55;;;;;;;-3.82;85.23;98654.88;5031542;28;20056;-76
2021/01/11 00:04:12;;;;;;;118.85;45.65;;;;;;;-3.81;84.84;98652.31;5049906;28;20061;-76
2021/01/11 00:06:42;;;;;;;113.55;43.22;;;;;;;-3.74;85.17;98652.28;5043365;28;20075;-75
2021/01/11 00:09:08;;;;;;;110.53;41.95;;;;;;;-3.75;85.38;98651.44;5051271;28;20056;-75
2021/01/11 00:11:35;;;;;;;122.85;45.83;;;;;;;-3.76;84.98;98652.28;5051839;28;20073;-76
2021/01/11 00:14:03;;;;;;;110.90;42.58;;;;;;;-3.84;85.13;98651.50;5032484;28;20050;-77
2021/01/11 00:16:30;;;;;;;114.35;41.80;;;;;;;-3.83;85.59;98658.28;5031353;28;20046;-76
2021/01/11 00:18:56;;;;;;;114.43;45.38;;;;;;;-3.93;85.51;98652.38;5031505;28;20100;-75
2021/01/11 00:21:22;;;;;;;99.05;38.83;;;;;;;-3.97;86.32;98656.66;5031481;28;20058;-77
2021/01/11 00:23:47;;;;;;;123.35;44.67;;;;;;;-4.07;87.65;98654.16;5042505;28;20118;-76
2021/01/11 00:26:14;;;;;;;122.63;44.15;;;;;;;-4.06;86.93;98650.72;5031033;28;20050;-77
2021/01/11 00:28:41;;;;;;;109.30;44.65;;;;;;;-4.05;86.69;98655.81;5031799;28;20111;-77
2021/01/11 00:31:08;;;;;;;111.85;43.92;;;;;;;-3.99;86.91;98660.91;5031021;28;20048;-75
2021/01/11 00:33:34;;;;;;;120.95;45.55;;;;;;;-4.05;86.46;98653.25;5034522;28;20036;-77
2021/01/11 00:36:00;;;;;;;119.55;45.63;;;;;;;-4.01;86.47;98660.09;5051669;28;20063;-74
2021/01/11 00:38:27;;;;;;;118.68;46.33;;;;;;;-4.09;87.28;98656.72;5039350;28;20045;-76
2021/01/11 00:40:54;;;;;;;120.40;48.58;;;;;;;-4.10;86.81;98662.69;5054887;28;20081;-76
2021/01/11 00:43:20;;;;;;;130.63;49.75;;;;;;;-4.08;87.25;98666.06;5041923;28;20041;-76
2021/01/11 00:45:45;;;;;;;120.75;48.00;;;;;;;-4.15;87.57;98667.81;5035049;28;20052;-78
2021/01/11 00:48:12;;;;;;;120.53;46.15;;;;;;;-4.16;87.67;98670.38;5034116;28;20497;-76
2021/01/11 00:50:38;;;;;;;113.80;44.85;;;;;;;-4.20;87.99;98671.25;5035170;28;20047;-77
2021/01/11 00:53:03;;;;;;;130.45;50.30;;;;;;;-4.14;87.45;98666.09;5035015;28;20065;-76
2021/01/11 00:55:29;;;;;;;131.73;50.80;;;;;;;-4.19;86.86;98660.16;5033598;28;20124;-76
2021/01/11 00:57:55;;;;;;;125.40;49.58;;;;;;;-4.19;86.94;98655.03;5034492;28;20140;-77
2021/01/11 01:00:22;;;;;;;130.10;50.55;;;;;;;-4.19;87.22;98663.56;5034181;28;20045;-76
2021/01/11 01:02:48;;;;;;;119.47;45.53;;;;;;;-4.22;87.99;98660.16;5040920;28;20041;-77
2021/01/11 01:05:15;;;;;;;137.95;50.85;;;;;;;-4.19;87.61;98657.59;5069559;28;20049;-76
2021/01/11 01:07:42;;;;;;;127.03;49.03;;;;;;;-4.26;88.17;98655.91;5040340;28;20041;-76
2021/01/11 01:10:10;;;;;;;126.22;47.60;;;;;;;-4.28;87.84;98655.91;5033972;28;20056;-76
2021/01/11 01:12:36;;;;;;;134.20;51.08;;;;;;;-4.33;88.03;98661.03;5037214;28;20128;-76
2021/01/11 01:15:07;;;;;;;141.23;52.67;;;;;;;-4.38;87.41;98646.56;5053669;28;20119;-75
2021/01/11 01:17:37;;;;;;;129.90;47.75;;;;;;;-4.41;88.23;98649.13;5054651;28;20064;-75
2021/01/11 01:20:14;;;;;;;131.75;50.33;;;;;;;-4.46;87.48;98645.69;5053653;28;20117;-76
2021/01/11 01:22:44;;;;;;;131.00;49.65;;;;;;;-4.45;87.44;98645.69;5063082;28;20121;-76
2021/01/11 01:25:11;;;;;;;128.15;49.22;;;;;;;-4.48;88.25;98643.16;5033548;28;20490;-76
2021/01/11 01:27:37;;;;;;;134.98;50.60;;;;;;;-4.52;88.15;98642.31;5032635;28;20455;-76
2021/01/11 01:30:05;;;;;;;134.50;51.13;;;;;;;-4.54;88.48;98640.59;5035700;28;20100;-75
2021/01/11 01:32:31;;;;;;;128.65;51.55;;;;;;;-4.62;89.06;98647.44;5052681;28;20171;-75
2021/01/11 01:34:57;;;;;;;147.73;53.22;;;;;;;-4.72;88.79;98639.78;5053803;28;20138;-75
2021/01/11 01:37:23;;;;;;;138.32;52.63;;;;;;;-4.78;89.23;98644.91;5039310;28;20046;-75
2021/01/11 01:39:49;;;;;;;123.78;52.05;;;;;;;-4.83;89.70;98632.97;5033804;28;20103;-75
2021/01/11 01:42:14;;;;;;;129.75;52.40;;;;;;;-4.87;89.79;98627.84;5034437;28;20059;-75
2021/01/11 01:44:40;;;;;;;123.35;46.15;;;;;;;-4.87;90.52;98629.56;5032803;28;20045;-75
2021/01/11 01:47:06;;;;;;;125.03;52.92;;;;;;;-4.79;89.98;98632.97;5033274;28;20124;-75
2021/01/11 01:49:32;;;;;;;137.00;56.00;;;;;;;-4.88;89.71;98617.63;5049224;28;20041;-75
2021/01/11 01:51:59;;;;;;;130.23;53.40;;;;;;;-5.01;90.38;98619.34;5051901;28;20080;-76
2021/01/11 01:54:25;;;;;;;137.00;50.53;;;;;;;-5.05;91.26;98610.84;5052935;28;20514;-75
2021/01/11 01:56:51;;;;;;;139.25;51.83;;;;;;;-4.99;91.47;98617.66;5053206;28;20045;-75
2021/01/11 01:59:18;;;;;;;130.65;53.70;;;;;;;-5.00;91.18;98615.09;5052921;28;20048;-74
2021/01/11 02:01:44;;;;;;;138.27;54.10;;;;;;;-5.14;91.19;98595.50;5051888;28;20057;-75
2021/01/11 02:04:10;;;;;;;131.73;52.88;;;;;;;-5.12;91.02;98616.81;5025750;28;20075;-76
2021/01/11 02:06:40;;;;;;;137.23;53.15;;;;;;;-5.09;91.46;98609.13;5041560;28;20060;-75
2021/01/11 02:09:12;;;;;;;134.77;53.55;;;;;;;-5.20;90.98;98600.63;5068197;28;20102;-73
2021/01/11 02:11:50;;;;;;;126.37;51.17;;;;;;;-5.17;91.71;98605.75;5037464;28;20049;-76
2021/01/11 02:14:50;;;;;;;131.02;53.13;;;;;;;-5.24;92.01;98602.31;5031647;28;20046;-76
2021/01/11 02:17:22;;;;;;;136.57;53.15;;;;;;;-5.27;91.91;98601.47;5047881;28;20417;-76
2021/01/11 02:20:09;;;;;;;133.93;51.53;;;;;;;-5.18;92.32;98593.81;5048801;28;20045;-76
2021/01/11 02:23:21;;;;;;;135.80;55.88;;;;;;;-5.18;91.92;98591.25;5033033;28;20102;-76
2021/01/11 02:26:42;;;;;;;133.82;53.40;;;;;;;-5.28;92.52;98595.53;5032958;28;20095;-76
2021/01/11 02:30:04;;;;;;;141.43;55.40;;;;;;;-5.31;93.63;98592.13;5013058;28;20049;-75
2021/01/11 02:32:31;;;;;;;128.35;53.17;;;;;;;-5.32;93.73;98592.97;5032354;28;20076;-76
2021/01/11 02:35:03;;;;;;;145.48;58.33;;;;;;;-5.37;93.34;98597.22;5032681;28;20045;-76
2021/01/11 02:37:29;;;;;;;141.82;56.70;;;;;;;-5.42;94.05;98602.34;5031592;28;20037;-76
2021/01/11 02:39:55;;;;;;;131.13;53.53;;;;;;;-5.50;94.59;98607.44;5042929;28;20056;-76
2021/01/11 02:42:21;;;;;;;140.55;54.78;;;;;;;-5.53;95.03;98581.88;5036798;28;20523;-76
2021/01/11 02:44:48;;;;;;;137.15;55.92;;;;;;;-5.49;96.28;98573.34;5052786;28;20041;-76
2021/01/11 02:47:24;;;;;;;133.75;53.75;;;;;;;-5.40;96.39;98581.03;5050023;28;20040;-75
2021/01/11 02:49:55;;;;;;;135.15;53.90;;;;;;;-5.36;96.70;98591.25;5052409;28;20048;-75
2021/01/11 02:52:42;;;;;;;130.75;53.20;;;;;;;-5.28;95.47;98575.06;5051855;28;20076;-76
2021/01/11 02:55:29;;;;;;;132.60;50.50;;;;;;;-5.19;95.52;98586.97;5067462;28;20041;-75
2021/01/11 02:58:13;;;;;;;136.57;51.13;;;;;;;-5.22;95.09;98582.75;5055680;28;20084;-76
2021/01/11 03:00:42;;;;;;;124.43;50.08;;;;;;;-5.00;93.45;98581.84;5032609;28;20052;-76
2021/01/11 03:03:11;;;;;;;119.72;49.42;;;;;;;-4.96;92.52;98578.44;5032353;28;20065;-75
2021/01/11 03:05:37;;;;;;;116.97;46.47;;;;;;;-4.97;93.22;98569.94;5033431;28;20440;-76
2021/01/11 03:08:03;;;;;;;120.95;49.20;;;;;;;-4.85;92.10;98581.81;5032443;28;20049;-76
2021/01/11 03:10:29;;;;;;;117.53;46.83;;;;;;;-4.83;92.39;98577.59;5031933;28;20604;-76
2021/01/11 03:12:55;;;;;;;114.72;45.58;;;;;;;-4.84;92.03;98565.63;5032417;28;20068;-76
2021/01/11 03:15:21;;;;;;;113.57;46.72;;;;;;;-4.77;92.50;98575.00;5040319;28;20151;-76
2021/01/11 03:17:47;;;;;;;112.47;46.00;;;;;;;-4.77;91.58;98575.00;5056274;28;20135;-76
2021/01/11 03:20:14;;;;;;;109.68;46.00;;;;;;;-4.76;91.55;98576.69;5032146;28;20061;-75
2021/01/11 03:22:40;;;;;;;121.82;48.08;;;;;;;-4.76;93.76;98594.59;5032297;28;20132;-76
2021/01/11 03:25:08;;;;;;;108.38;43.85;;;;;;;-4.97;93.56;98584.41;5032125;28;20431;-76
2021/01/11 03:27:34;;;;;;;114.97;46.78;;;;;;;-4.88;94.52;98577.59;5039227;28;20079;-75
2021/01/11 03:30:00;;;;;;;123.07;48.75;;;;;;;-4.76;94.24;98586.94;5051753;28;20064;-76
2021/01/11 03:32:26;;;;;;;125.95;49.78;;;;;;;-4.65;94.13;98589.47;5051401;28;20041;-75
2021/01/11 03:34:51;;;;;;;109.32;44.72;;;;;;;-4.61;93.59;98586.06;5043908;28;20052;-76
2021/01/11 03:37:18;;;;;;;123.88;50.95;;;;;;;-4.62;93.29;98568.16;5036420;28;20049;-75
2021/01/11 03:39:45;;;;;;;123.63;49.35;;;;;;;-4.49;92.16;98574.94;5051660;28;20099;-76
2021/01/11 03:42:10;;;;;;;119.35;48.85;;;;;;;-4.37;89.96;98564.66;5051689;28;20060;-75
2021/01/11 03:44:37;;;;;;;115.68;47.80;;;;;;;-4.26;89.27;98566.28;5051400;28;20127;-77
2021/01/11 03:47:03;;;;;;;108.95;43.38;;;;;;;-4.37;89.01;98561.22;5049302;28;20120;-75
2021/01/11 03:49:29;;;;;;;107.68;45.58;;;;;;;-4.52;90.01;98564.72;5042125;28;20557;-75
2021/01/11 03:52:02;;;;;;;99.18;43.78;;;;;;;-4.66;92.47;98557.06;5031923;28;20045;-75
2021/01/11 03:54:30;;;;;;;103.65;41.10;;;;;;;-4.70;92.37;98565.59;5046560;28;20045;-75
2021/01/11 03:56:56;;;;;;;126.22;46.85;;;;;;;-4.69;92.50;98557.94;5034790;28;20091;-75
2021/01/11 03:59:22;;;;;;;111.22;44.53;;;;;;;-4.61;90.80;98552.78;5051150;28;20053;-75
2021/01/11 04:01:48;;;;;;;107.60;43.90;;;;;;;-4.63;92.53;98561.31;5051460;28;20492;-76
2021/01/11 04:04:14;;;;;;;126.60;52.35;;;;;;;-4.51;90.68;98562.16;5051536;28;20051;-74
2021/01/11 04:06:40;;;;;;;128.98;49.55;;;;;;;-4.51;89.16;98556.16;5050801;28;20041;-76
2021/01/11 04:09:06;;;;;;;128.48;49.67;;;;;;;-4.48;88.69;98563.81;5050441;28;20103;-75
2021/01/11 04:11:32;;;;;;;129.57;50.42;;;;;;;-4.52;88.47;98549.34;5053611;28;20092;-75
2021/01/11 04:13:58;;;;;;;130.57;49.88;;;;;;;-4.47;87.67;98562.97;5055460;28;20500;-74
2021/01/11 04:16:24;;;;;;;132.90;51.50;;;;;;;-4.53;88.38;98553.59;5055096;28;20037;-75
2021/01/11 04:18:50;;;;;;;120.50;48.78;;;;;;;-4.50;87.98;98547.63;5037601;28;20177;-75
2021/01/11 04:21:16;;;;;;;144.88;55.72;;;;;;;-4.49;88.20;98551.91;5050643;28;20127;-74
2021/01/11 04:23:42;;;;;;;137.55;54.55;;;;;;;-4.50;88.13;98552.75;5055311;28;20041;-75
2021/01/11 04:26:10;;;;;;;158.05;63.15;;;;;;;-4.51;87.28;98551.91;5055468;28;20037;-76
2021/01/11 04:28:36;;;;;;;158.23;61.70;;;;;;;-4.57;87.50;98545.94;5054047;28;20048;-75
2021/01/11 04:31:04;;;;;;;155.10;59.20;;;;;;;-4.54;87.70;98556.16;5055014;28;20504;-75
2021/01/11 04:33:30;;;;;;;171.35;64.75;;;;;;;-4.43;86.72;98553.56;5054715;28;20041;-75
2021/01/11 04:35:55;;;;;;;172.35;66.97;;;;;;;-4.52;86.85;98549.34;5038676;28;20068;-74
2021/01/11 04:38:21;;;;;;;165.82;64.22;;;;;;;-4.52;86.84;98555.31;5040631;28;20046;-75
2021/01/11 04:40:49;;;;;;;166.13;63.53;;;;;;;-4.61;87.91;98562.19;5047077;28;20544;-75
2021/01/11 04:43:18;;;;;;;173.50;69.30;;;;;;;-4.56;89.08;98556.19;5053507;28;20037;-70
2021/01/11 04:45:44;;;;;;;195.18;73.57;;;;;;;-4.58;87.27;98554.50;5049742;28;20128;-75
2021/01/11 04:48:12;;;;;;;194.95;72.70;;;;;;;-4.56;87.85;98560.44;5052888;28;20370;-74
2021/01/11 04:50:39;;;;;;;189.35;74.07;;;;;;;-4.58;88.41;98554.50;5036397;28;20042;-75
2021/01/11 04:53:10;;;;;;;202.77;76.72;;;;;;;-4.61;87.78;98551.94;5033513;28;20171;-75
2021/01/11 04:55:37;;;;;;;182.05;73.45;;;;;;;-4.63;88.10;98551.94;5042356;28;20072;-74
2021/01/11 04:58:10;;;;;;;199.82;73.68;;;;;;;-4.64;87.62;98554.53;5054402;28;20464;-75
2021/01/11 05:00:39;;;;;;;197.20;74.10;;;;;;;-4.62;86.98;98553.63;5041093;28;20107;-75
2021/01/11 05:03:09;;;;;;;200.50;73.60;;;;;;;-4.54;88.10;98566.41;5054015;28;20553;-75
2021/01/11 05:05:41;;;;;;;194.23;72.53;;;;;;;-4.57;87.65;98556.19;5048874;28;20128;-75
2021/01/11 05:08:07;;;;;;;;;;;;;;;-4.60;87.91;98558.75;5041647;28;20037;-75
2021/01/11 05:10:37;;;;;;;204.57;76.90;;;;;;;-4.49;87.83;98564.69;5040677;28;19935;-75
2021/01/11 05:13:09;;;;;;;208.48;74.22;;;;;;;-4.44;87.35;98562.13;5043669;28;20045;-75
2021/01/11 05:15:37;;;;;;;207.60;77.57;;;;;;;-4.41;89.05;98555.28;5050465;28;20073;-75
2021/01/11 05:18:20;;;;;;;195.82;75.18;;;;;;;-4.50;86.80;98557.88;5032902;28;20136;-75
2021/01/11 05:20:47;;;;;;;195.20;69.80;;;;;;;-4.54;86.65;98561.28;5034377;28;20049;-75
2021/01/11 05:23:16;;;;;;;189.27;72.18;;;;;;;-4.51;87.72;98563.84;5046707;28;20041;-74
2021/01/11 05:25:44;;;;;;;193.93;70.85;;;;;;;-4.61;87.32;98557.91;5047572;28;20041;-75
2021/01/11 05:28:12;;;;;;;186.30;69.93;;;;;;;-4.60;88.40;98561.31;5068714;28;20049;-75
2021/01/11 05:30:47;;;;;;;151.88;60.72;;;;;;;-4.66;88.88;98567.31;5051961;28;20053;-75
2021/01/11 05:33:18;;;;;;;186.70;70.85;;;;;;;-4.55;89.21;98569.84;5054002;28;20120;-75
2021/01/11 05:35:45;;;;;;;189.07;69.25;;;;;;;-4.45;87.53;98563.81;5053594;28;20049;-75
2021/01/11 05:38:18;;;;;;;194.43;72.47;;;;;;;-4.55;87.21;98555.31;5060685;28;20049;-74
2021/01/11 05:40:46;;;;;;;193.27;76.22;;;;;;;-4.45;87.43;98566.38;5033401;28;20045;-75
2021/01/11 05:43:20;;;;;;;199.50;71.22;;;;;;;-4.42;87.08;98571.47;5033960;28;20060;-75
2021/01/11 05:45:48;;;;;;;192.77;74.15;;;;;;;-4.54;86.85;98556.16;5033878;28;20037;-75
2021/01/11 05:48:16;;;;;;;180.60;69.35;;;;;;;-4.58;86.79;98554.50;5046674;28;20041;-75
2021/01/11 05:50:50;;;;;;;186.38;71.50;;;;;;;-4.50;87.31;98563.00;5035222;28;20057;-76
2021/01/11 05:53:20;;;;;;;189.77;72.88;;;;;;;-4.47;87.05;98565.53;5044588;28;20053;-76
2021/01/11 05:55:48;;;;;;;201.95;75.60;;;;;;;-4.60;87.42;98553.63;5046391;28;20048;-76
2021/01/11 05:58:14;;;;;;;186.93;72.57;;;;;;;-4.52;87.58;98552.75;5034940;28;20057;-76
2021/01/11 06:00:42;;;;;;;192.32;70.88;;;;;;;-4.53;86.55;98557.88;5033858;28;20053;-76
2021/01/11 06:03:11;;;;;;;165.80;60.92;;;;;;;-4.68;87.57;98558.78;5034013;28;20456;-76
2021/01/11 06:05:37;;;;;;;178.38;67.45;;;;;;;-4.73;88.50;98560.50;5048488;28;20096;-76
2021/01/11 06:08:06;;;;;;;187.63;71.93;;;;;;;-4.62;88.73;98563.03;5033220;28;20046;-75
2021/01/11 06:10:32;;;;;;;168.95;63.83;;;;;;;-4.61;87.69;98560.47;5031741;28;20136;-76
2021/01/11 06:12:58;;;;;;;166.13;66.53;;;;;;;-4.54;87.37;98563.84;5032531;28;20119;-75
2021/01/11 06:15:27;;;;;;;180.50;68.60;;;;;;;-4.68;88.18;98563.88;5044241;28;20079;-73
2021/01/11 06:17:56;;;;;;;167.30;59.10;;;;;;;-4.70;89.18;98558.78;5048571;28;20504;-76
2021/01/11 06:20:28;;;;;;;167.57;67.10;;;;;;;-4.63;88.67;98548.53;5034335;28;20052;-75
2021/01/11 06:22:54;;;;;;;167.85;64.85;;;;;;;-4.50;87.84;98563.00;5055134;28;20037;-74
2021/01/11 06:25:23;;;;;;;190.68;73.53;;;;;;;-4.45;86.95;98558.69;5044291;28;20041;-75
2021/01/11 06:28:09;;;;;;;188.45;71.30;;;;;;;-4.60;87.59;98561.31;5033429;28;20091;-75
2021/01/11 06:30:41;;;;;;;166.30;62.85;;;;;;;-4.61;87.54;98564.75;5048304;28;20049;-75
2021/01/11 06:33:07;;;;;;;169.20;66.32;;;;;;;-4.76;88.43;98566.47;5043158;28;20484;-74
2021/01/11 06:35:47;;;;;;;189.85;72.18;;;;;;;-4.82;89.62;98571.59;5048068;28;20053;-74
2021/01/11 06:38:25;;;;;;;200.82;74.85;;;;;;;-4.74;89.84;98586.91;5052430;28;20045;-75
2021/01/11 06:41:11;;;;;;;182.75;69.25;;;;;;;-4.80;89.11;98574.16;5048550;28;20041;-76
2021/01/11 06:43:49;;;;;;;181.00;72.40;;;;;;;-4.90;89.35;98560.53;5032252;28;20180;-72
2021/01/11 06:46:30;;;;;;;178.77;72.90;;;;;;;-4.75;88.72;98578.41;5032327;28;20050;-73
2021/01/11 06:49:00;;;;;;;156.20;62.55;;;;;;;-4.72;88.56;98573.28;5046430;28;20123;-71
2021/01/11 06:51:41;;;;;;;177.75;64.60;;;;;;;-4.66;88.20;98572.44;5032192;28;20619;-71
2021/01/11 06:54:13;;;;;;;147.67;55.67;;;;;;;-4.64;87.62;98580.09;5047599;28;20056;-72
2021/01/11 06:56:41;;;;;;;175.02;65.93;;;;;;;-4.82;88.77;98569.03;5033455;28;20289;-71
2021/01/11 06:59:16;;;;;;;167.93;66.97;;;;;;;-4.82;89.61;98583.53;5040221;28;20117;-72
2021/01/11 07:01:45;;;;;;;185.55;74.07;;;;;;;-4.72;89.23;98577.56;5038082;28;20132;-73
2021/01/11 07:04:36;;;;;;;187.50;71.25;;;;;;;-4.64;88.25;98575.81;5038451;28;20065;-73
2021/01/11 07:07:02;;;;;;;150.10;60.95;;;;;;;-4.79;89.23;98586.94;5046947;28;20075;-72
2021/01/11 07:09:29;;;;;;;136.60;56.88;;;;;;;-4.86;90.62;98591.22;5033777;28;20061;-70
2021/01/11 07:12:04;;;;;;;176.55;69.72;;;;;;;-4.78;88.73;98590.38;5031844;28;20150;-73
2021/01/11 07:14:55;;;;;;;197.38;73.85;;;;;;;-4.68;89.24;98592.03;5031690;28;20049;-70
2021/01/11 07:17:40;;;;;;;200.23;76.07;;;;;;;-4.67;89.00;98589.47;5031859;28;20053;-72
2021/01/11 07:20:12;;;;;;;199.93;70.25;;;;;;;-4.73;90.18;98599.72;5050081;28;20044;-74
2021/01/11 07:22:41;;;;;;;190.15;69.95;;;;;;;-4.62;90.02;98602.25;5066552;28;20037;-71
2021/01/11 07:25:24;;;;;;;158.45;57.95;;;;;;;-4.74;89.76;98615.06;5051952;28;20110;-72
2021/01/11 07:27:59;;;;;;;171.52;65.97;;;;;;;-4.65;90.56;98611.63;5051464;28;20072;-72
2021/01/11 07:30:25;;;;;;;161.93;60.67;;;;;;;-4.62;89.29;98598.84;5051776;28;20072;-72
2021/01/11 07:32:52;;;;;;;169.07;66.68;;;;;;;-4.47;89.09;98598.81;5044496;28;20608;-72
2021/01/11 07:35:18;;;;;;;176.65;68.63;;;;;;;-4.40;89.90;98603.06;5034870;28;20061;-72
2021/01/11 07:37:44;;;;;;;185.27;70.18;;;;;;;-4.40;88.75;98610.72;5051095;28;20484;-73
2021/01/11 07:40:11;;;;;;;173.25;70.20;;;;;;;-4.41;87.96;98593.66;5050512;28;20154;-72
2021/01/11 07:42:38;;;;;;;150.13;56.95;;;;;;;-4.56;87.86;98606.50;5050493;28;20049;-73
2021/01/11 07:45:12;;;;;;;169.98;67.05;;;;;;;-4.40;87.86;98595.38;5039171;28;20065;-73
2021/01/11 07:47:39;;;;;;;171.30;64.88;;;;;;;-4.27;86.07;98603.00;5034815;28;20085;-71
2021/01/11 07:50:08;;;;;;;161.38;65.90;;;;;;;-4.39;86.43;98614.97;5048855;28;20048;-76
2021/01/11 07:52:33;;;;;;;180.32;69.80;;;;;;;-4.32;86.87;98614.09;5054520;28;20041;-70
2021/01/11 07:55:08;;;;;;;198.35;75.93;;;;;;;-4.22;84.98;98608.97;5070811;28;20045;-71
2021/01/11 07:57:35;;;;;;;175.85;67.80;;;;;;;-4.12;84.16;98610.63;5054854;28;20467;-71
2021/01/11 08:00:11;;;;;;;142.13;55.55;;;;;;;-4.25;84.55;98608.97;5070828;28;20048;-71
2021/01/11 08:02:39;;;;;;;149.43;57.45;;;;;;;-4.17;86.11;98610.66;5051512;28;20048;-71
2021/01/11 08:05:18;;;;;;;174.55;68.63;;;;;;;-4.06;85.90;98609.72;5050693;28;20092;-72
2021/01/11 08:07:49;;;;;;;181.80;71.57;;;;;;;-4.00;85.80;98609.72;5066686;28;20353;-73
2021/01/11 08:10:16;;;;;;;188.60;73.95;;;;;;;-3.94;84.74;98608.84;5055230;28;20118;-72
2021/01/11 08:12:42;;;;;;;189.23;71.57;;;;;;;-4.05;84.78;98612.28;5053173;28;20168;-72
2021/01/11 08:15:09;;;;;;;192.55;74.05;;;;;;;-4.07;85.77;98603.78;5055042;28;20053;-73
2021/01/11 08:17:42;;;;;;;200.25;77.45;;;;;;;-3.90;84.87;98600.28;5053522;28;20369;-71
2021/01/11 08:20:09;;;;;;;204.10;78.30;;;;;;;-3.93;85.05;98610.56;5055022;28;20044;-72
2021/01/11 08:22:35;;;;;;;200.43;78.18;;;;;;;-4.02;84.67;98602.03;5048657;28;20132;-71
2021/01/11 08:25:01;;;;;;;198.93;75.80;;;;;;;-3.94;85.06;98607.13;5034863;28;20053;-72
2021/01/11 08:27:31;;;;;;;204.48;79.80;;;;;;;-3.98;85.76;98610.56;5034716;28;20382;-72
2021/01/11 08:30:24;;;;;;;190.15;78.60;;;;;;;-3.92;84.02;98607.09;5034138;28;20060;-72
2021/01/11 08:32:51;;;;;;;197.00;79.28;;;;;;;-4.04;85.55;98614.00;5033124;28;20057;-72
2021/01/11 08:35:21;;;;;;;184.90;74.95;;;;;;;-4.23;86.83;98604.69;5033774;28;20049;-72
2021/01/11 08:37:47;;;;;;;187.68;75.20;;;;;;;-4.16;87.30;98608.94;5049999;28;20053;-71
2021/01/11 08:40:35;;;;;;;193.82;76.93;;;;;;;-3.94;86.48;98626.78;5052732;28;20117;-71
2021/01/11 08:43:10;;;;;;;201.40;75.10;;;;;;;-3.74;85.30;98619.81;5047982;28;20056;-71
2021/01/11 08:45:39;;;;;;;219.60;83.25;;;;;;;-3.29;82.24;98614.41;5053851;28;20049;-70
2021/01/11 08:48:11;;;;;;;204.10;78.40;;;;;;;-2.42;78.99;98619.63;5034461;28;20128;-72
2021/01/11 08:50:56;;;;;;;168.98;68.40;;;;;;;-1.89;76.36;98612.16;5049027;28;20122;-70
2021/01/11 08:53:42;;;;;;;189.48;74.57;;;;;;;-2.02;76.37;98612.31;5054426;28;20056;-73
2021/01/11 08:56:11;;;;;;;170.30;69.20;;;;;;;-2.60;77.67;98611.25;5053634;28;20484;-72
2021/01/11 08:58:53;;;;;;;189.57;77.78;;;;;;;-2.29;78.18;98626.31;5053663;28;20555;-71
2021/01/11 09:01:25;;;;;;;190.15;72.85;;;;;;;-2.21;78.47;98621.97;5056931;28;20488;-71
2021/01/11 09:03:58;;;;;;;204.27;79.82;;;;;;;-2.21;77.00;98624.53;5043412;28;20107;-74
2021/01/11 09:06:44;;;;;;;176.80;72.25;;;;;;;-2.54;78.20;98615.47;5044345;28;20136;-74
2021/01/11 09:09:19;;;;;;;194.70;76.22;;;;;;;-2.72;80.57;98635.34;5040507;28;20049;-72
2021/01/11 09:11:48;;;;;;;192.82;77.03;;;;;;;-2.65;78.55;98625.84;5048647;28;20045;-71
2021/01/11 09:14:18;;;;;;;182.57;73.28;;;;;;;-2.54;79.27;98631.72;5035414;28;20041;-71
2021/01/11 09:16:47;;;;;;;172.10;69.88;;;;;;;-2.80;79.22;98637.09;5034014;28;20076;-69
2021/01/11 09:19:19;;;;;;;186.77;77.18;;;;;;;-2.72;79.30;98626.75;5034086;28;20045;-72
2021/01/11 09:22:15;;;;;;;189.20;79.30;;;;;;;-2.60;79.40;98628.38;5032984;28;20139;-71
2021/01/11 09:24:44;;;;;;;209.88;80.53;;;;;;;-2.09;76.34;98631.22;5034005;28;20053;-71
2021/01/11 09:27:11;;;;;;;201.38;80.85;;;;;;;-1.04;73.67;98624.63;5034157;28;20045;-72
2021/01/11 09:29:37;;;;;;;177.75;73.20;;;;;;;-0.55;72.03;98626.38;5044626;28;20503;-72
2021/01/11 09:32:05;;;;;;;188.20;77.43;;;;;;;0.05;69.06;98616.66;5051481;28;20128;-72
2021/01/11 09:34:31;;;;;;;205.70;85.60;;;;;;;1.05;64.14;98619.56;5068094;28;20094;-72
2021/01/11 09:36:57;;;;;;;187.65;77.25;;;;;;;0.95;63.57;98615.50;5032683;28;20394;-73
2021/01/11 09:39:23;;;;;;;191.07;82.88;;;;;;;1.26;62.08;98619.91;5033980;28;20045;-73
2021/01/11 09:41:53;;;;;;;194.35;81.20;;;;;;;0.32;65.84;98625.50;5034580;28;20057;-72
2021/01/11 09:44:20;;;;;;;193.88;85.55;;;;;;;-0.60;69.06;98628.19;5039195;28;20129;-73
2021/01/11 09:46:52;;;;;;;200.30;89.53;;;;;;;0.59;67.51;98618.06;5033478;28;20103;-71
2021/01/11 09:49:19;;;;;;;186.32;84.57;;;;;;;0.49;67.82;98616.56;5052623;28;20060;-72
2021/01/11 09:51:45;;;;;;;204.93;89.53;;;;;;;0.78;66.10;98618.47;5052648;28;20151;-72
2021/01/11 09:54:11;;;;;;;211.38;90.85;;;;;;;1.17;64.09;98610.66;5053572;28;20394;-71
2021/01/11 09:56:39;;;;;;;197.27;88.95;;;;;;;0.89;66.07;98618.22;5053308;28;20056;-72
2021/01/11 09:59:06;;;;;;;180.77;83.38;;;;;;;0.96;65.25;98609.47;5052865;28;20044;-73
2021/01/11 10:01:51;;;;;;;211.10;89.38;;;;;;;0.82;64.94;98603.75;5042638;28;20061;-73
2021/01/11 10:04:19;;;;;;;215.07;90.05;;;;;;;0.89;65.34;98600.16;5048731;28;20099;-73
2021/01/11 10:06:47;;;;;;;194.63;86.90;;;;;;;0.56;67.35;98602.66;5044777;28;20038;-72
2021/01/11 10:09:25;;;;;;;207.57;88.65;;;;;;;0.46;67.65;98585.69;5032484;28;20053;-72
2021/01/11 10:11:54;;;;;;;197.18;88.20;;;;;;;0.35;69.56;98585.94;5032220;28;20057;-72
2021/01/11 10:14:21;;;;;;;200.88;85.57;;;;;;;-0.09;70.99;98582.59;5044953;28;20049;-74
2021/01/11 10:16:49;;;;;;;170.52;76.65;;;;;;;-0.46;73.79;98588.47;5051058;28;20098;-73
2021/01/11 10:19:22;;;;;;;204.13;89.38;;;;;;;-0.15;72.80;98587.88;5050810;28;20174;-72
2021/01/11 10:21:49;;;;;;;199.02;84.35;;;;;;;-0.30;73.01;98584.69;5052237;28;20045;-72
2021/01/11 10:24:17;;;;;;;176.05;71.50;;;;;;;-0.37;72.98;98585.72;5046553;28;20049;-72
2021/01/11 10:26:45;;;;;;;186.20;80.13;;;;;;;-0.33;75.57;98581.34;5040449;28;20504;-70
2021/01/11 10:29:12;;;;;;;206.73;90.25;;;;;;;-0.29;74.78;98575.25;5032741;28;20511;-72
2021/01/11 10:31:42;;;;;;;206.40;87.43;;;;;;;-0.35;73.50;98578.78;5034958;28;20388;-72
2021/01/11 10:34:08;;;;;;;183.48;79.88;;;;;;;-0.42;74.15;98579.78;5052538;28;20044;-72
2021/01/11 10:36:46;;;;;;;175.20;76.07;;;;;;;-0.15;73.98;98568.09;5052851;28;20045;-72
2021/01/11 10:39:14;;;;;;;184.13;81.47;;;;;;;0.42;70.93;98563.41;5047732;28;20132;-72
2021/01/11 10:41:40;;;;;;;206.57;88.82;;;;;;;0.56;70.00;98563.97;5033099;28;20076;-73
2021/01/11 10:44:08;;;;;;;190.00;79.25;;;;;;;0.10;72.90;98557.25;5030898;28;20049;-72
2021/01/11 10:46:35;;;;;;;167.80;73.32;;;;;;;0.61;70.98;98564.69;5032621;28;20489;-71
2021/01/11 10:49:01;;;;;;;155.63;66.88;;;;;;;0.82;70.84;98563.34;5033299;28;20045;-72
2021/01/11 10:51:27;;;;;;;186.43;84.35;;;;;;;0.82;70.32;98558.19;5032548;28;20072;-72
2021/01/11 10:53:53;;;;;;;175.13;77.68;;;;;;;1.20;68.80;98546.00;5037896;28;20556;-71
2021/01/11 10:56:19;;;;;;;168.32;75.70;;;;;;;0.68;69.48;98545.63;5043546;28;20120;-73
2021/01/11 10:58:45;;;;;;;179.60;79.30;;;;;;;1.17;69.06;98548.66;5032366;28;20037;-72
2021/01/11 11:01:14;;;;;;;170.18;77.82;;;;;;;1.45;68.22;98541.94;5032557;28;20041;-72
2021/01/11 11:03:40;;;;;;;181.00;79.57;;;;;;;1.63;66.83;98536.25;5032611;28;20045;-72
2021/01/11 11:06:06;;;;;;;148.48;64.15;;;;;;;1.72;65.61;98536.00;5031674;28;20049;-73
2021/01/11 11:08:33;;;;;;;153.98;67.32;;;;;;;2.34;64.90;98526.41;5032503;28;20048;-72
2021/01/11 11:11:00;;;;;;;154.05;66.25;;;;;;;2.72;63.97;98526.94;5031984;28;20044;-72
2021/01/11 11:13:26;;;;;;;133.82;61.42;;;;;;;2.65;62.19;98528.84;5032474;28;20046;-73
2021/01/11 11:15:52;;;;;;;144.52;64.93;;;;;;;2.17;63.95;98520.91;5032258;28;20049;-71
2021/01/11 11:18:18;;;;;;;158.70;71.97;;;;;;;2.24;65.25;98527.56;5035876;28;20045;-72
2021/01/11 11:20:46;;;;;;;147.13;66.85;;;;;;;2.57;63.45;98519.66;5051769;28;20064;-71
2021/01/11 11:23:13;;;;;;;127.00;60.42;;;;;;;2.69;63.87;98506.31;5051395;28;20060;-72
2021/01/11 11:25:45;;;;;;;129.95;57.17;;;;;;;2.41;64.37;98502.03;5032113;28;20124;-72